createdAt,value
2019-04-07T00:00:46.707Z,99.70
2019-04-07T00:01:46.876Z,99.90
2019-04-07T00:02:46.699Z,99.95
2019-04-07T00:03:46.703Z,99.95
2019-04-07T00:04:46.718Z,99.99
2019-04-07T00:05:48.254Z,99.99
2019-04-07T00:06:46.655Z,99.99
2019-04-07T00:07:47.223Z,99.85
2019-04-07T00:08:46.631Z,99.95
2019-04-07T00:09:46.778Z,99.85
2019-04-07T00:10:46.875Z,99.99
2019-04-07T00:11:46.841Z,99.90
2019-04-07T00:12:46.601Z,99.99
2019-04-07T00:13:46.935Z,99.99
2019-04-07T00:14:46.708Z,99.99
2019-04-07T00:15:46.674Z,99.99
2019-04-07T00:16:46.598Z,99.99
2019-04-07T00:17:47.626Z,99.99
2019-04-07T00:18:47.024Z,99.99
2019-04-07T00:19:46.984Z,99.99
2019-04-07T00:20:46.521Z,99.99
2019-04-07T00:21:48.649Z,99.99
2019-04-07T00:22:46.499Z,99.99
2019-04-07T00:23:47.848Z,99.99
2019-04-07T00:24:46.751Z,99.99
2019-04-07T00:25:46.786Z,99.99
2019-04-07T00:26:46.460Z,99.99
2019-04-07T00:27:53.233Z,99.99
2019-04-07T00:28:46.425Z,99.99
2019-04-07T00:29:47.553Z,99.99
2019-04-07T00:30:46.417Z,99.99
2019-04-07T00:31:47.490Z,99.99
2019-04-07T00:32:46.753Z,99.99
2019-04-07T00:33:46.486Z,99.99
2019-04-07T00:34:46.827Z,99.99
2019-04-07T00:35:46.858Z,99.99
2019-04-07T00:36:46.779Z,99.99
2019-04-07T00:37:46.736Z,99.99
2019-04-07T00:38:46.321Z,99.99
2019-04-07T00:39:46.662Z,99.99
2019-04-07T00:40:46.301Z,99.99
2019-04-07T00:41:46.433Z,99.99
2019-04-07T00:42:46.288Z,99.99
2019-04-07T00:43:47.140Z,99.99
2019-04-07T00:44:46.615Z,99.99
2019-04-07T00:45:46.266Z,99.99
2019-04-07T00:46:46.255Z,99.99
2019-04-07T00:47:46.388Z,99.99
2019-04-07T00:48:46.218Z,99.99
2019-04-07T00:49:46.559Z,99.99
2019-04-07T00:50:46.220Z,99.99
2019-04-07T00:51:46.437Z,99.99
2019-04-07T00:52:46.203Z,99.99
2019-04-07T00:53:47.334Z,99.99
2019-04-07T00:54:46.200Z,99.99
2019-04-07T00:55:46.342Z,99.99
2019-04-07T00:56:46.522Z,99.99
2019-04-07T00:57:46.143Z,99.99
2019-04-07T00:58:46.638Z,99.99
2019-04-07T00:59:46.158Z,99.99
2019-04-07T01:00:46.275Z,99.99
2019-04-07T01:01:46.095Z,99.99
2019-04-07T01:02:46.536Z,99.99
2019-04-07T01:03:46.195Z,99.99
2019-04-07T01:04:46.097Z,99.99
2019-04-07T01:05:46.752Z,99.99
2019-04-07T01:06:46.029Z,99.99
2019-04-07T01:07:46.386Z,99.99
2019-04-07T01:08:46.349Z,99.99
2019-04-07T01:09:46.420Z,99.99
2019-04-07T01:10:46.146Z,99.99
2019-04-07T01:11:45.978Z,99.99
2019-04-07T01:12:46.233Z,99.99
2019-04-07T01:13:46.179Z,99.99
2019-04-07T01:14:46.009Z,99.99
2019-04-07T01:15:46.065Z,99.99
2019-04-07T01:16:46.062Z,99.99
2019-04-07T01:17:45.908Z,99.99
2019-04-07T01:18:47.010Z,99.99
2019-04-07T01:19:45.897Z,99.99
2019-04-07T01:20:46.748Z,99.99
2019-04-07T01:21:45.873Z,99.99
2019-04-07T01:22:46.238Z,99.99
2019-04-07T01:23:45.876Z,99.99
2019-04-07T01:24:46.038Z,99.99
2019-04-07T01:25:45.859Z,99.99
2019-04-07T01:26:45.953Z,99.99
2019-04-07T01:27:46.584Z,99.99
2019-04-07T01:28:45.802Z,99.99
2019-04-07T01:29:46.342Z,99.99
2019-04-07T01:30:45.878Z,99.99
2019-04-07T01:31:45.986Z,99.99
2019-04-07T01:32:45.758Z,99.99
2019-04-07T01:33:45.750Z,99.99
2019-04-07T01:34:46.972Z,99.99
2019-04-07T01:35:48.712Z,99.99
2019-04-07T01:36:45.905Z,99.99
2019-04-07T01:37:45.998Z,99.99
2019-04-07T01:38:46.095Z,99.99
2019-04-07T01:39:45.835Z,99.99
2019-04-07T01:40:46.627Z,99.99
2019-04-07T01:41:46.207Z,99.99
2019-04-07T01:42:45.839Z,99.99
2019-04-07T01:43:45.660Z,99.99
2019-04-07T01:44:46.111Z,99.99
2019-04-07T01:45:45.784Z,99.99
2019-04-07T01:46:45.892Z,99.99
2019-04-07T01:47:45.598Z,99.99
2019-04-07T01:48:45.796Z,99.99
2019-04-07T01:49:45.575Z,99.99
2019-04-07T01:50:46.793Z,99.99
2019-04-07T01:51:45.604Z,99.99
2019-04-07T01:52:45.699Z,99.99
2019-04-07T01:53:45.574Z,99.99
2019-04-07T01:54:45.777Z,99.99
2019-04-07T01:55:45.592Z,99.99
2019-04-07T01:56:46.447Z,99.99
2019-04-07T01:57:45.521Z,99.99
2019-04-07T01:58:46.031Z,99.99
2019-04-07T01:59:45.520Z,99.99
2019-04-07T02:00:45.606Z,99.99
2019-04-07T02:01:45.937Z,99.99
2019-04-07T02:02:45.577Z,99.99
2019-04-07T02:03:45.449Z,99.99
2019-04-07T02:04:47.923Z,99.99
2019-04-07T02:05:56.811Z,99.99
2019-04-07T02:06:46.424Z,99.99
2019-04-07T02:07:45.789Z,99.99
2019-04-07T02:08:45.503Z,99.99
2019-04-07T02:09:45.382Z,99.99
2019-04-07T02:10:46.017Z,99.99
2019-04-07T02:11:45.352Z,99.99
2019-04-07T02:12:46.639Z,99.99
2019-04-07T02:13:45.484Z,99.99
2019-04-07T02:14:45.521Z,99.99
2019-04-07T02:15:45.343Z,99.99
2019-04-07T02:16:45.507Z,99.99
2019-04-07T02:17:45.569Z,99.99
2019-04-07T02:18:45.498Z,99.99
2019-04-07T02:19:45.958Z,99.99
2019-04-07T02:20:45.283Z,99.99
2019-04-07T02:21:45.392Z,99.99
2019-04-07T02:22:45.400Z,99.99
2019-04-07T02:23:45.231Z,99.99
2019-04-07T02:24:45.434Z,99.99
2019-04-07T02:25:45.413Z,99.99
2019-04-07T02:26:45.562Z,99.99
2019-04-07T02:27:45.877Z,99.99
2019-04-07T02:28:45.179Z,99.99
2019-04-07T02:29:45.361Z,99.99
2019-04-07T02:30:45.952Z,99.99
2019-04-07T02:31:46.197Z,99.99
2019-04-07T02:32:46.043Z,99.99
2019-04-07T02:33:46.307Z,99.99
2019-04-07T02:34:45.550Z,99.99
2019-04-07T02:35:46.422Z,99.99
2019-04-07T02:36:45.090Z,99.99
2019-04-07T02:37:46.013Z,99.99
2019-04-07T02:38:45.613Z,99.99
2019-04-07T02:39:45.213Z,99.99
2019-04-07T02:40:45.943Z,99.99
2019-04-07T02:41:45.233Z,99.99
2019-04-07T02:42:46.021Z,99.99
2019-04-07T02:43:46.553Z,99.99
2019-04-07T02:44:45.281Z,99.99
2019-04-07T02:45:45.310Z,99.99
2019-04-07T02:46:44.983Z,99.99
2019-04-07T02:47:45.180Z,99.99
2019-04-07T02:48:44.997Z,99.99
2019-04-07T02:49:45.694Z,99.99
2019-04-07T02:50:45.238Z,99.99
2019-04-07T02:51:46.107Z,99.99
2019-04-07T02:52:45.218Z,99.99
2019-04-07T02:53:47.077Z,99.99
2019-04-07T02:54:44.932Z,99.99
2019-04-07T02:55:46.131Z,99.99
2019-04-07T02:56:45.059Z,99.99
2019-04-07T02:57:45.030Z,99.99
2019-04-07T02:58:44.859Z,99.99
2019-04-07T02:59:46.362Z,99.99
2019-04-07T03:00:44.867Z,99.99
2019-04-07T03:01:45.406Z,99.99
2019-04-07T03:02:45.650Z,99.99
2019-04-07T03:03:44.995Z,99.99
2019-04-07T03:04:45.871Z,99.99
2019-04-07T03:05:45.589Z,99.99
2019-04-07T03:06:50.005Z,99.99
2019-04-07T03:07:47.237Z,99.99
2019-04-07T03:08:45.335Z,99.99
2019-04-07T03:09:44.755Z,99.99
2019-04-07T03:10:45.002Z,99.99
2019-04-07T03:11:44.736Z,99.99
2019-04-07T03:12:45.416Z,99.99
2019-04-07T03:13:46.478Z,99.99
2019-04-07T03:14:45.650Z,99.99
2019-04-07T03:15:44.915Z,99.99
2019-04-07T03:16:44.806Z,99.99
2019-04-07T03:17:45.829Z,99.99
2019-04-07T03:18:44.656Z,99.99
2019-04-07T03:19:45.301Z,99.99
2019-04-07T03:20:45.484Z,99.99
2019-04-07T03:21:45.744Z,99.99
2019-04-07T03:22:44.610Z,99.99
2019-04-07T03:23:45.802Z,99.99
2019-04-07T03:24:44.591Z,99.99
2019-04-07T03:25:45.180Z,99.99
2019-04-07T03:26:44.557Z,99.99
2019-04-07T03:27:44.736Z,99.99
2019-04-07T03:28:44.549Z,99.99
2019-04-07T03:29:45.230Z,99.99
2019-04-07T03:30:45.436Z,99.99
2019-04-07T03:31:46.845Z,99.99
2019-04-07T03:32:46.746Z,99.99
2019-04-07T03:33:48.074Z,99.99
2019-04-07T03:34:46.799Z,99.99
2019-04-07T03:35:46.197Z,99.99
2019-04-07T03:37:12.785Z,99.99
2019-04-07T03:37:47.471Z,99.99
2019-04-07T03:38:44.449Z,99.99
2019-04-07T03:39:44.633Z,99.99
2019-04-07T03:40:44.471Z,99.99
2019-04-07T03:41:44.630Z,99.99
2019-04-07T03:42:44.537Z,99.99
2019-04-07T03:43:44.391Z,99.99
2019-04-07T03:44:45.613Z,99.99
2019-04-07T03:45:45.269Z,99.99
2019-04-07T03:46:45.546Z,99.99
2019-04-07T03:47:44.373Z,99.99
2019-04-07T03:48:44.589Z,99.99
2019-04-07T03:49:44.361Z,99.99
2019-04-07T03:50:44.554Z,99.99
2019-04-07T03:51:44.315Z,99.99
2019-04-07T03:52:44.969Z,99.99
2019-04-07T03:53:44.288Z,99.99
2019-04-07T03:54:45.028Z,99.99
2019-04-07T03:55:44.484Z,99.99
2019-04-07T03:56:44.288Z,99.99
2019-04-07T03:57:44.489Z,99.99
2019-04-07T03:58:44.271Z,99.99
2019-04-07T03:59:44.659Z,99.99
2019-04-07T04:00:44.293Z,99.99
2019-04-07T04:01:44.279Z,99.99
2019-04-07T04:02:44.417Z,99.99
2019-04-07T04:03:44.264Z,99.99
2019-04-07T04:04:44.186Z,99.99
2019-04-07T04:05:44.221Z,99.99
2019-04-07T04:06:44.192Z,99.99
2019-04-07T04:07:44.309Z,99.99
2019-04-07T04:08:44.176Z,99.99
2019-04-07T04:09:45.555Z,99.99
2019-04-07T04:10:44.914Z,99.99
2019-04-07T04:11:45.111Z,99.99
2019-04-07T04:12:44.109Z,99.99
2019-04-07T04:13:44.315Z,99.99
2019-04-07T04:14:44.069Z,99.99
2019-04-07T04:15:44.667Z,99.99
2019-04-07T04:16:44.519Z,99.99
2019-04-07T04:17:44.050Z,99.99
2019-04-07T04:18:44.739Z,99.99
2019-04-07T04:19:45.104Z,99.99
2019-04-07T04:20:44.434Z,99.99
2019-04-07T04:21:44.507Z,99.99
2019-04-07T04:22:44.339Z,99.99
2019-04-07T04:23:44.710Z,99.99
2019-04-07T04:24:44.032Z,99.99
2019-04-07T04:25:45.436Z,99.99
2019-04-07T04:26:44.172Z,99.99
2019-04-07T04:27:44.260Z,99.99
2019-04-07T04:28:44.334Z,99.99
2019-04-07T04:29:44.849Z,99.99
2019-04-07T04:30:44.187Z,99.99
2019-04-07T04:31:43.926Z,99.99
2019-04-07T04:32:46.283Z,99.99
2019-04-07T04:33:44.282Z,99.99
2019-04-07T04:34:43.880Z,99.99
2019-04-07T04:35:44.237Z,99.99
2019-04-07T04:36:44.653Z,99.99
2019-04-07T04:37:48.798Z,99.99
2019-04-07T04:38:44.824Z,99.99
2019-04-07T04:39:44.630Z,99.99
2019-04-07T04:40:44.128Z,99.99
2019-04-07T04:41:44.668Z,99.99
2019-04-07T04:42:44.376Z,99.99
2019-04-07T04:43:43.771Z,99.99
2019-04-07T04:44:44.362Z,99.99
2019-04-07T04:45:43.785Z,99.99
2019-04-07T04:46:43.780Z,99.99
2019-04-07T04:47:43.738Z,99.99
2019-04-07T04:48:43.768Z,99.99
2019-04-07T04:49:44.755Z,99.99
2019-04-07T04:50:44.095Z,99.99
2019-04-07T04:51:44.404Z,99.99
2019-04-07T04:52:45.419Z,99.99
2019-04-07T04:53:44.308Z,99.99
2019-04-07T04:54:43.686Z,99.99
2019-04-07T04:55:44.036Z,99.99
2019-04-07T04:56:43.657Z,99.99
2019-04-07T04:57:44.450Z,99.99
2019-04-07T04:58:44.350Z,99.99
2019-04-07T04:59:44.318Z,99.99
2019-04-07T05:00:44.548Z,99.99
2019-04-07T05:01:44.845Z,99.99
2019-04-07T05:02:44.447Z,99.99
2019-04-07T05:03:43.665Z,99.99
2019-04-07T05:04:43.873Z,99.99
2019-04-07T05:05:48.339Z,99.99
2019-04-07T05:06:43.658Z,99.99
2019-04-07T05:07:54.933Z,99.99
2019-04-07T05:08:44.549Z,99.99
2019-04-07T05:09:50.248Z,99.99
2019-04-07T05:10:44.898Z,99.99
2019-04-07T05:11:43.566Z,99.99
2019-04-07T05:12:43.492Z,99.99
2019-04-07T05:13:45.579Z,99.99
2019-04-07T05:14:43.463Z,99.99
2019-04-07T05:15:44.588Z,99.99
2019-04-07T05:16:43.602Z,99.99
2019-04-07T05:17:43.662Z,99.99
2019-04-07T05:18:43.674Z,99.99
2019-04-07T05:19:43.474Z,99.99
2019-04-07T05:20:44.319Z,99.99
2019-04-07T05:21:50.480Z,99.99
2019-04-07T05:22:43.426Z,99.99
2019-04-07T05:23:43.903Z,99.99
2019-04-07T05:24:43.372Z,99.99
2019-04-07T05:25:44.941Z,99.99
2019-04-07T05:26:43.338Z,99.99
2019-04-07T05:27:44.708Z,99.99
2019-04-07T05:28:43.913Z,99.99
2019-04-07T05:29:43.345Z,99.99
2019-04-07T05:30:43.562Z,99.99
2019-04-07T05:31:43.885Z,99.99
2019-04-07T05:32:43.273Z,99.99
2019-04-07T05:33:43.370Z,99.99
2019-04-07T05:34:43.262Z,99.99
2019-04-07T05:35:44.913Z,99.99
2019-04-07T05:36:43.378Z,99.99
2019-04-07T05:37:43.386Z,99.99
2019-04-07T05:38:43.210Z,99.99
2019-04-07T05:39:43.731Z,99.99
2019-04-07T05:40:43.308Z,99.99
2019-04-07T05:41:44.982Z,99.99
2019-04-07T05:42:43.337Z,99.99
2019-04-07T05:43:43.189Z,99.99
2019-04-07T05:44:43.238Z,99.99
2019-04-07T05:45:44.282Z,99.99
2019-04-07T05:46:43.480Z,99.99
2019-04-07T05:47:47.877Z,99.99
2019-04-07T05:48:44.555Z,99.99
2019-04-07T05:49:43.370Z,99.99
2019-04-07T05:50:43.859Z,99.99
2019-04-07T05:51:43.395Z,99.99
2019-04-07T05:52:43.365Z,99.99
2019-04-07T05:53:46.452Z,99.99
2019-04-07T05:54:44.132Z,99.99
2019-04-07T05:55:43.618Z,99.99
2019-04-07T05:56:43.728Z,99.99
2019-04-07T05:57:43.144Z,99.99
2019-04-07T05:58:43.893Z,99.99
2019-04-07T05:59:43.677Z,99.99
2019-04-07T06:00:47.028Z,99.99
2019-04-07T06:01:42.996Z,99.99
2019-04-07T06:02:50.813Z,99.99
2019-04-07T06:03:43.644Z,99.99
2019-04-07T06:04:46.835Z,99.99
2019-04-07T06:05:45.330Z,99.99
2019-04-07T06:06:44.226Z,99.99
2019-04-07T06:07:43.693Z,99.99
2019-04-07T06:08:42.992Z,99.99
2019-04-07T06:09:43.741Z,99.99
2019-04-07T06:10:43.603Z,99.99
2019-04-07T06:11:43.176Z,99.99
2019-04-07T06:12:46.338Z,99.99
2019-04-07T06:13:44.593Z,99.99
2019-04-07T06:14:43.842Z,99.99
2019-04-07T06:15:42.861Z,99.99
2019-04-07T06:16:43.555Z,99.99
2019-04-07T06:17:43.545Z,99.99
2019-04-07T06:18:43.382Z,99.99
2019-04-07T06:19:43.582Z,99.99
2019-04-07T06:20:45.346Z,99.99
2019-04-07T06:21:46.061Z,99.99
2019-04-07T06:22:42.874Z,99.99
2019-04-07T06:23:43.261Z,99.99
2019-04-07T06:24:42.730Z,99.99
2019-04-07T06:25:43.981Z,99.99
2019-04-07T06:26:47.140Z,99.99
2019-04-07T06:27:45.250Z,99.99
2019-04-07T06:28:46.552Z,99.99
2019-04-07T06:29:43.693Z,99.99
2019-04-07T06:30:42.892Z,99.99
2019-04-07T06:31:43.527Z,99.99
2019-04-07T06:32:44.055Z,99.99
2019-04-07T06:33:42.998Z,99.99
2019-04-07T06:34:44.184Z,99.99
2019-04-07T06:35:45.026Z,99.99
2019-04-07T06:36:43.118Z,99.99
2019-04-07T06:37:42.926Z,99.99
2019-04-07T06:38:48.134Z,99.99
2019-04-07T06:39:44.059Z,99.99
2019-04-07T06:40:42.695Z,99.99
2019-04-07T06:41:43.193Z,99.99
2019-04-07T06:42:44.052Z,99.99
2019-04-07T06:43:42.594Z,99.99
2019-04-07T06:44:42.520Z,99.99
2019-04-07T06:45:42.571Z,99.99
2019-04-07T06:46:42.583Z,99.99
2019-04-07T06:47:43.285Z,99.99
2019-04-07T06:48:42.482Z,99.99
2019-04-07T06:49:44.701Z,99.99
2019-04-07T06:50:49.276Z,99.99
2019-04-07T06:51:43.504Z,99.99
2019-04-07T06:52:42.444Z,99.99
2019-04-07T06:53:43.116Z,99.99
2019-04-07T06:54:42.427Z,99.99
2019-04-07T06:55:42.789Z,99.99
2019-04-07T06:56:42.398Z,99.99
2019-04-07T06:57:42.815Z,99.99
2019-04-07T06:58:42.927Z,99.99
2019-04-07T06:59:45.666Z,99.99
2019-04-07T07:00:42.394Z,99.63
2019-04-07T07:01:42.803Z,98.14
2019-04-07T07:02:43.775Z,96.45
2019-04-07T07:03:43.079Z,94.40
2019-04-07T07:04:45.454Z,93.54
2019-04-07T07:05:45.332Z,92.93
2019-04-07T07:06:42.305Z,92.27
2019-04-07T07:07:42.606Z,92.57
2019-04-07T07:08:46.133Z,91.86
2019-04-07T07:09:43.287Z,90.79
2019-04-07T07:10:42.965Z,90.79
2019-04-07T07:11:43.986Z,91.30
2019-04-07T07:12:42.274Z,90.69
2019-04-07T07:13:44.735Z,90.23
2019-04-07T07:14:44.963Z,91.56
2019-04-07T07:15:42.862Z,91.36
2019-04-07T07:16:44.508Z,91.77
2019-04-07T07:17:42.352Z,91.83
2019-04-07T07:18:42.190Z,90.70
2019-04-07T07:19:42.328Z,91.11
2019-04-07T07:20:42.704Z,89.64
2019-04-07T07:21:42.614Z,88.92
2019-04-07T07:22:45.646Z,87.59
2019-04-07T07:23:47.122Z,86.88
2019-04-07T07:24:45.905Z,85.30
2019-04-07T07:25:42.235Z,85.20
2019-04-07T07:26:42.851Z,84.44
2019-04-07T07:27:43.062Z,82.81
2019-04-07T07:28:43.970Z,82.91
2019-04-07T07:29:45.486Z,82.87
2019-04-07T07:30:42.719Z,82.26
2019-04-07T07:31:42.623Z,82.87
2019-04-07T07:32:42.011Z,82.05
2019-04-07T07:33:43.651Z,80.89
2019-04-07T07:34:42.477Z,80.48
2019-04-07T07:35:45.528Z,80.14
2019-04-07T07:36:41.974Z,80.44
2019-04-07T07:37:42.042Z,80.85
2019-04-07T07:38:54.430Z,81.46
2019-04-07T07:39:45.099Z,82.45
2019-04-07T07:40:42.621Z,82.14
2019-04-07T07:41:41.926Z,82.24
2019-04-07T07:42:42.115Z,81.63
2019-04-07T07:43:42.442Z,81.39
2019-04-07T07:44:42.589Z,80.37
2019-04-07T07:45:45.010Z,79.96
2019-04-07T07:46:43.198Z,79.66
2019-04-07T07:47:42.625Z,78.74
2019-04-07T07:48:42.132Z,78.84
2019-04-07T07:49:42.444Z,78.94
2019-04-07T07:50:41.926Z,77.07
2019-04-07T07:51:45.059Z,77.98
2019-04-07T07:52:43.116Z,78.66
2019-04-07T07:53:42.648Z,77.98
2019-04-07T07:54:42.401Z,77.95
2019-04-07T07:55:44.496Z,77.14
2019-04-07T07:56:47.958Z,76.42
2019-04-07T07:57:42.759Z,74.25
2019-04-07T07:58:42.807Z,74.04
2019-04-07T07:59:42.114Z,73.80
2019-04-07T08:00:43.338Z,74.11
2019-04-07T08:01:44.319Z,74.01
2019-04-07T08:02:41.916Z,72.28
2019-04-07T08:03:42.463Z,71.67
2019-04-07T08:04:43.557Z,69.90
2019-04-07T08:05:41.743Z,70.31
2019-04-07T08:06:42.359Z,70.38
2019-04-07T08:07:45.687Z,70.89
2019-04-07T08:08:45.150Z,67.94
2019-04-07T08:09:42.161Z,69.26
2019-04-07T08:10:41.733Z,70.04
2019-04-07T08:11:42.337Z,70.35
2019-04-07T08:12:42.150Z,70.75
2019-04-07T08:13:44.523Z,70.14
2019-04-07T08:14:42.573Z,69.43
2019-04-07T08:15:41.648Z,69.23
2019-04-07T08:16:41.552Z,70.65
2019-04-07T08:17:42.074Z,70.21
2019-04-07T08:18:44.592Z,69.50
2019-04-07T08:19:44.207Z,70.82
2019-04-07T08:20:44.967Z,69.60
2019-04-07T08:21:43.614Z,68.69
2019-04-07T08:22:43.655Z,66.96
2019-04-07T08:23:44.614Z,67.33
2019-04-07T08:24:41.604Z,67.84
2019-04-07T08:25:41.553Z,68.45
2019-04-07T08:26:41.482Z,67.33
2019-04-07T08:27:41.978Z,66.72
2019-04-07T08:28:41.445Z,66.93
2019-04-07T08:29:41.434Z,68.22
2019-04-07T08:30:44.518Z,66.52
2019-04-07T08:31:42.684Z,67.30
2019-04-07T08:32:42.117Z,66.52
2019-04-07T08:33:42.121Z,65.37
2019-04-07T08:34:41.574Z,66.29
2019-04-07T08:35:41.389Z,68.12
2019-04-07T08:36:44.411Z,67.00
2019-04-07T08:37:41.570Z,68.52
2019-04-07T08:38:41.341Z,68.42
2019-04-07T08:39:42.065Z,68.12
2019-04-07T08:40:41.361Z,67.10
2019-04-07T08:41:42.500Z,68.12
2019-04-07T08:42:41.851Z,67.71
2019-04-07T08:43:41.983Z,67.17
2019-04-07T08:44:41.960Z,65.85
2019-04-07T08:45:41.462Z,67.07
2019-04-07T08:46:43.140Z,66.66
2019-04-07T08:47:41.295Z,67.98
2019-04-07T08:48:41.213Z,67.88
2019-04-07T08:49:41.650Z,67.68
2019-04-07T08:50:42.042Z,68.19
2019-04-07T08:51:41.679Z,68.66
2019-04-07T08:52:43.044Z,69.88
2019-04-07T08:53:44.134Z,68.96
2019-04-07T08:54:41.165Z,67.14
2019-04-07T08:55:41.712Z,66.23
2019-04-07T08:56:41.136Z,66.94
2019-04-07T08:57:41.310Z,66.80
2019-04-07T08:58:41.379Z,66.63
2019-04-07T08:59:42.981Z,65.89
2019-04-07T09:00:41.675Z,66.83
2019-04-07T09:01:42.145Z,66.50
2019-04-07T09:02:41.602Z,66.80
2019-04-07T09:03:44.467Z,66.91
2019-04-07T09:04:41.252Z,66.80
2019-04-07T09:05:41.175Z,68.23
2019-04-07T09:06:41.025Z,67.21
2019-04-07T09:07:41.215Z,66.88
2019-04-07T09:08:41.068Z,66.27
2019-04-07T09:09:46.556Z,66.57
2019-04-07T09:10:42.015Z,65.56
2019-04-07T09:11:41.592Z,65.86
2019-04-07T09:12:41.801Z,65.02
2019-04-07T09:13:41.444Z,64.64
2019-04-07T09:14:41.893Z,65.73
2019-04-07T09:15:43.571Z,66.33
2019-04-07T09:16:41.611Z,66.74
2019-04-07T09:17:45.955Z,66.13
2019-04-07T09:18:51.699Z,65.93
2019-04-07T09:19:41.899Z,65.83
2019-04-07T09:20:43.600Z,65.93
2019-04-07T09:21:42.515Z,66.64
2019-04-07T09:22:40.872Z,66.71
2019-04-07T09:23:40.938Z,66.10
2019-04-07T09:24:41.622Z,65.70
2019-04-07T09:25:42.009Z,64.38
2019-04-07T09:26:42.814Z,64.89
2019-04-07T09:27:41.122Z,65.19
2019-04-07T09:28:40.811Z,64.28
2019-04-07T09:29:41.090Z,63.78
2019-04-07T09:30:40.942Z,66.10
2019-04-07T09:31:41.057Z,65.70
2019-04-07T09:32:41.598Z,65.77
2019-04-07T09:33:40.889Z,63.64
2019-04-07T09:34:41.385Z,64.15
2019-04-07T09:35:41.301Z,64.25
2019-04-07T09:36:40.809Z,64.15
2019-04-07T09:37:41.835Z,63.75
2019-04-07T09:38:40.887Z,64.45
2019-04-07T09:39:54.708Z,64.96
2019-04-07T09:40:42.309Z,63.64
2019-04-07T09:41:42.823Z,64.86
2019-04-07T09:42:41.199Z,65.97
2019-04-07T09:43:40.756Z,65.26
2019-04-07T09:44:40.651Z,66.07
2019-04-07T09:45:41.229Z,65.67
2019-04-07T09:46:44.605Z,64.25
2019-04-07T09:47:41.699Z,64.25
2019-04-07T09:48:41.430Z,64.15
2019-04-07T09:49:41.334Z,63.64
2019-04-07T09:50:40.797Z,64.73
2019-04-07T09:51:41.484Z,64.35
2019-04-07T09:52:43.552Z,64.15
2019-04-07T09:53:41.627Z,64.32
2019-04-07T09:54:40.974Z,63.61
2019-04-07T09:55:41.143Z,63.21
2019-04-07T09:56:40.694Z,63.41
2019-04-07T09:57:41.182Z,65.03
2019-04-07T09:58:42.711Z,63.10
2019-04-07T09:59:40.644Z,62.81
2019-04-07T10:00:41.023Z,63.28
2019-04-07T10:01:41.137Z,63.68
2019-04-07T10:02:40.441Z,63.78
2019-04-07T10:03:40.576Z,63.18
2019-04-07T10:04:42.481Z,62.57
2019-04-07T10:05:40.971Z,63.18
2019-04-07T10:06:40.433Z,64.87
2019-04-07T10:07:42.779Z,64.29
2019-04-07T10:08:40.616Z,62.98
2019-04-07T10:09:41.135Z,62.98
2019-04-07T10:10:40.461Z,63.76
2019-04-07T10:11:40.463Z,64.76
2019-04-07T10:12:40.503Z,63.35
2019-04-07T10:13:40.947Z,62.54
2019-04-07T10:14:40.512Z,62.41
2019-04-07T10:15:40.444Z,64.13
2019-04-07T10:16:40.681Z,63.42
2019-04-07T10:17:40.351Z,63.73
2019-04-07T10:18:40.312Z,64.84
2019-04-07T10:19:40.372Z,65.04
2019-04-07T10:20:40.778Z,64.73
2019-04-07T10:21:40.315Z,64.40
2019-04-07T10:22:40.220Z,62.99
2019-04-07T10:23:40.394Z,61.98
2019-04-07T10:24:40.436Z,63.19
2019-04-07T10:25:41.172Z,62.18
2019-04-07T10:26:40.192Z,61.47
2019-04-07T10:27:40.185Z,60.36
2019-04-07T10:28:41.968Z,60.87
2019-04-07T10:29:40.170Z,61.17
2019-04-07T10:30:40.154Z,62.88
2019-04-07T10:31:40.860Z,62.68
2019-04-07T10:32:40.652Z,62.96
2019-04-07T10:33:40.560Z,62.28
2019-04-07T10:34:40.786Z,60.33
2019-04-07T10:35:40.870Z,59.83
2019-04-07T10:36:40.742Z,58.42
2019-04-07T10:37:40.129Z,59.02
2019-04-07T10:38:40.092Z,59.12
2019-04-07T10:39:40.076Z,58.72
2019-04-07T10:40:40.174Z,58.22
2019-04-07T10:41:40.039Z,58.42
2019-04-07T10:42:40.223Z,58.22
2019-04-07T10:43:40.503Z,58.62
2019-04-07T10:44:40.242Z,59.00
2019-04-07T10:45:40.538Z,60.03
2019-04-07T10:46:39.972Z,62.52
2019-04-07T10:47:40.161Z,58.19
2019-04-07T10:48:40.125Z,58.39
2019-04-07T10:49:40.637Z,60.00
2019-04-07T10:50:40.480Z,59.30
2019-04-07T10:51:40.797Z,57.89
2019-04-07T10:52:39.934Z,56.95
2019-04-07T10:53:40.561Z,59.07
2019-04-07T10:54:40.505Z,58.56
2019-04-07T10:55:40.567Z,58.56
2019-04-07T10:56:39.999Z,56.85
2019-04-07T10:57:39.860Z,57.15
2019-04-07T10:58:40.299Z,56.95
2019-04-07T10:59:40.318Z,58.16
2019-04-07T11:00:44.484Z,58.54
2019-04-07T11:01:40.973Z,56.72
2019-04-07T11:02:40.359Z,56.52
2019-04-07T11:03:40.511Z,57.83
2019-04-07T11:04:39.778Z,56.04
2019-04-07T11:05:41.065Z,55.64
2019-04-07T11:06:40.534Z,55.34
2019-04-07T11:07:40.398Z,56.04
2019-04-07T11:08:40.036Z,56.85
2019-04-07T11:09:40.570Z,57.15
2019-04-07T11:10:39.834Z,56.15
2019-04-07T11:11:41.215Z,56.42
2019-04-07T11:12:39.743Z,57.30
2019-04-07T11:13:40.350Z,55.66
2019-04-07T11:14:39.761Z,55.91
2019-04-07T11:15:39.677Z,53.72
2019-04-07T11:16:40.697Z,52.04
2019-04-07T11:17:39.650Z,49.16
2019-04-07T11:18:40.319Z,48.22
2019-04-07T11:19:39.845Z,49.07
2019-04-07T11:20:39.712Z,47.15
2019-04-07T11:21:40.399Z,44.43
2019-04-07T11:22:40.185Z,42.71
2019-04-07T11:23:40.329Z,44.21
2019-04-07T11:24:39.908Z,45.48
2019-04-07T11:25:39.927Z,44.37
2019-04-07T11:26:40.344Z,44.67
2019-04-07T11:27:39.542Z,43.49
2019-04-07T11:28:39.993Z,44.37
2019-04-07T11:29:39.735Z,42.65
2019-04-07T11:30:39.864Z,42.75
2019-04-07T11:31:39.505Z,42.25
2019-04-07T11:32:40.270Z,42.75
2019-04-07T11:33:39.564Z,42.95
2019-04-07T11:34:40.160Z,40.24
2019-04-07T11:35:40.150Z,41.33
2019-04-07T11:36:39.689Z,42.01
2019-04-07T11:37:39.470Z,41.20
2019-04-07T11:38:39.418Z,39.21
2019-04-07T11:39:39.529Z,40.18
2019-04-07T11:40:45.422Z,38.97
2019-04-07T11:41:41.300Z,39.15
2019-04-07T11:42:40.247Z,40.74
2019-04-07T11:43:40.791Z,39.25
2019-04-07T11:44:40.092Z,39.63
2019-04-07T11:45:39.391Z,37.64
2019-04-07T11:46:40.099Z,39.01
2019-04-07T11:47:39.577Z,38.52
2019-04-07T11:48:39.468Z,38.81
2019-04-07T11:49:41.482Z,39.61
2019-04-07T11:50:39.614Z,39.31
2019-04-07T11:51:40.641Z,38.02
2019-04-07T11:52:39.830Z,38.52
2019-04-07T11:53:39.599Z,37.77
2019-04-07T11:54:39.329Z,39.67
2019-04-07T11:55:39.270Z,40.26
2019-04-07T11:56:40.152Z,39.86
2019-04-07T11:57:43.263Z,38.85
2019-04-07T11:58:40.872Z,38.83
2019-04-07T11:59:39.406Z,38.00
2019-04-07T12:00:41.551Z,36.11
2019-04-07T12:01:39.478Z,36.30
2019-04-07T12:02:41.556Z,37.49
2019-04-07T12:03:40.431Z,36.98
2019-04-07T12:04:39.180Z,35.98
2019-04-07T12:05:39.831Z,38.17
2019-04-07T12:06:41.142Z,35.47
2019-04-07T12:07:39.180Z,34.38
2019-04-07T12:08:39.112Z,35.06
2019-04-07T12:09:39.645Z,35.85
2019-04-07T12:10:39.864Z,34.27
2019-04-07T12:11:39.736Z,35.06
2019-04-07T12:12:39.649Z,35.44
2019-04-07T12:13:42.740Z,35.72
2019-04-07T12:14:40.250Z,35.21
2019-04-07T12:15:39.963Z,34.22
2019-04-07T12:16:39.159Z,36.49
2019-04-07T12:17:42.081Z,36.79
2019-04-07T12:18:39.682Z,33.21
2019-04-07T12:19:39.828Z,31.93
2019-04-07T12:20:38.972Z,33.11
2019-04-07T12:21:39.397Z,34.18
2019-04-07T12:22:39.259Z,34.78
2019-04-07T12:23:39.065Z,35.85
2019-04-07T12:24:39.296Z,32.31
2019-04-07T12:25:40.088Z,33.01
2019-04-07T12:26:42.129Z,34.79
2019-04-07T12:27:43.008Z,34.43
2019-04-07T12:28:40.114Z,36.52
2019-04-07T12:29:39.859Z,34.84
2019-04-07T12:30:39.156Z,36.51
2019-04-07T12:31:39.132Z,36.87
2019-04-07T12:32:38.981Z,33.79
2019-04-07T12:33:39.647Z,34.56
2019-04-07T12:34:41.786Z,35.05
2019-04-07T12:35:38.836Z,33.75
2019-04-07T12:36:39.763Z,35.02
2019-04-07T12:37:42.010Z,32.06
2019-04-07T12:38:41.283Z,30.38
2019-04-07T12:39:38.795Z,31.96
2019-04-07T12:40:38.943Z,32.77
2019-04-07T12:41:39.064Z,32.28
2019-04-07T12:42:40.292Z,31.76
2019-04-07T12:43:39.211Z,33.42
2019-04-07T12:44:39.883Z,33.37
2019-04-07T12:45:38.775Z,32.90
2019-04-07T12:46:38.789Z,34.00
2019-04-07T12:47:38.683Z,34.23
2019-04-07T12:48:39.201Z,35.35
2019-04-07T12:49:42.171Z,33.39
2019-04-07T12:50:39.705Z,34.20
2019-04-07T12:51:38.665Z,36.46
2019-04-07T12:52:38.694Z,38.80